sensor_id;sensor_type;location;lat;lon;timestamp;pressure;altitude;pressure_sealevel;temperature;humidity
31337;BME280;22846;42.654;23.314;2023-09-08T00:01:59;95019.66;;;26.86;41.37
31337;BME280;22846;42.654;23.314;2023-09-08T00:04:25;95022.06;;;26.84;41.32
31337;BME280;22846;42.654;23.314;2023-09-08T00:06:50;95032.31;;;26.83;41.19
31337;BME280;22846;42.654;23.314;2023-09-08T00:09:16;95018.25;;;26.81;41.42
31337;BME280;22846;42.654;23.314;2023-09-08T00:11:41;95026.16;;;26.79;41.29
31337;BME280;22846;42.654;23.314;2023-09-08T00:14:07;95017.16;;;26.79;41.36
31337;BME280;22846;42.654;23.314;2023-09-08T00:16:32;95021.13;;;26.78;41.22
31337;BME280;22846;42.654;23.314;2023-09-08T00:18:57;95020.50;;;26.74;40.88
31337;BME280;22846;42.654;23.314;2023-09-08T00:21:24;95013.00;;;26.74;40.47
31337;BME280;22846;42.654;23.314;2023-09-08T00:23:50;95016.22;;;26.73;40.09
31337;BME280;22846;42.654;23.314;2023-09-08T00:26:15;95018.94;;;26.73;40.65
31337;BME280;22846;42.654;23.314;2023-09-08T00:28:40;95007.19;;;26.72;40.01
31337;BME280;22846;42.654;23.314;2023-09-08T00:31:06;95013.88;;;26.71;40.31
31337;BME280;22846;42.654;23.314;2023-09-08T00:33:31;95010.41;;;26.71;40.11
31337;BME280;22846;42.654;23.314;2023-09-08T00:35:56;95017.09;;;26.70;40.20
31337;BME280;22846;42.654;23.314;2023-09-08T00:38:22;95003.03;;;26.68;39.59
31337;BME280;22846;42.654;23.314;2023-09-08T00:40:57;95000.31;;;26.68;39.54
31337;BME280;22846;42.654;23.314;2023-09-08T00:43:22;95004.59;;;26.69;39.11
31337;BME280;22846;42.654;23.314;2023-09-08T00:45:48;95007.00;;;26.67;39.46
31337;BME280;22846;42.654;23.314;2023-09-08T00:48:13;94989.47;;;26.64;39.72
31337;BME280;22846;42.654;23.314;2023-09-08T00:50:39;95000.75;;;26.66;39.75
31337;BME280;22846;42.654;23.314;2023-09-08T00:53:05;95001.50;;;26.67;39.76
31337;BME280;22846;42.654;23.314;2023-09-08T00:55:32;94989.00;;;26.66;39.25
31337;BME280;22846;42.654;23.314;2023-09-08T00:57:58;94985.97;;;26.64;39.82
31337;BME280;22846;42.654;23.314;2023-09-08T01:00:27;94995.41;;;26.63;39.08
31337;BME280;22846;42.654;23.314;2023-09-08T01:02:53;94989.91;;;26.63;40.14
31337;BME280;22846;42.654;23.314;2023-09-08T01:05:19;94986.84;;;26.61;39.62
31337;BME280;22846;42.654;23.314;2023-09-08T01:07:46;94982.09;;;26.61;39.52
31337;BME280;22846;42.654;23.314;2023-09-08T01:10:12;95000.53;;;26.61;39.49
31337;BME280;22846;42.654;23.314;2023-09-08T01:12:39;94991.56;;;26.60;39.42
31337;BME280;22846;42.654;23.314;2023-09-08T01:15:05;94997.06;;;26.60;39.66
31337;BME280;22846;42.654;23.314;2023-09-08T01:17:31;94994.72;;;26.59;39.66
31337;BME280;22846;42.654;23.314;2023-09-08T01:20:01;94992.78;;;26.59;39.44
31337;BME280;22846;42.654;23.314;2023-09-08T01:27:39;94993.97;;;26.58;40.10
31337;BME280;22846;42.654;23.314;2023-09-08T01:30:06;94997.94;;;26.57;40.77
31337;BME280;22846;42.654;23.314;2023-09-08T01:32:33;94993.97;;;26.58;41.02
31337;BME280;22846;42.654;23.314;2023-09-08T01:34:59;94990.91;;;26.56;41.10
31337;BME280;22846;42.654;23.314;2023-09-08T01:37:26;94990.91;;;26.56;40.51
31337;BME280;22846;42.654;23.314;2023-09-08T01:39:51;94992.91;;;26.56;40.70
31337;BME280;22846;42.654;23.314;2023-09-08T01:42:16;94983.56;;;26.53;40.88
31337;BME280;22846;42.654;23.314;2023-09-08T01:44:42;94975.66;;;26.55;40.85
31337;BME280;22846;42.654;23.314;2023-09-08T01:47:07;94985.88;;;26.55;40.89
31337;BME280;22846;42.654;23.314;2023-09-08T01:49:32;94985.88;;;26.55;41.11
31337;BME280;22846;42.654;23.314;2023-09-08T01:51:58;94987.09;;;26.54;40.43
31337;BME280;22846;42.654;23.314;2023-09-08T01:54:23;94980.06;;;26.53;40.52
31337;BME280;22846;42.654;23.314;2023-09-08T01:56:49;94982.03;;;26.52;40.80
31337;BME280;22846;42.654;23.314;2023-09-08T01:59:15;94977.78;;;26.51;40.64
31337;BME280;22846;42.654;23.314;2023-09-08T02:01:40;94982.47;;;26.51;40.84
31337;BME280;22846;42.654;23.314;2023-09-08T02:04:06;94980.94;;;26.50;40.48
31337;BME280;22846;42.654;23.314;2023-09-08T02:06:31;94982.94;;;26.49;41.36
31337;BME280;22846;42.654;23.314;2023-09-08T02:08:56;94974.69;;;26.49;41.62
31337;BME280;22846;42.654;23.314;2023-09-08T02:11:22;94981.38;;;26.48;41.92
31337;BME280;22846;42.654;23.314;2023-09-08T02:13:47;94984.88;;;26.49;41.43
31337;BME280;22846;42.654;23.314;2023-09-08T02:16:16;94985.78;;;26.46;41.56
31337;BME280;22846;42.654;23.314;2023-09-08T02:18:43;94979.09;;;26.47;40.93
31337;BME280;22846;42.654;23.314;2023-09-08T02:21:08;94973.28;;;26.45;42.45
31337;BME280;22846;42.654;23.314;2023-09-08T02:23:34;94977.97;;;26.45;41.15
31337;BME280;22846;42.654;23.314;2023-09-08T02:25:59;94965.06;;;26.45;42.39
31337;BME280;22846;42.654;23.314;2023-09-08T02:28:24;94967.47;;;26.43;42.09
31337;BME280;22846;42.654;23.314;2023-09-08T02:30:50;94964.72;;;26.43;42.29
31337;BME280;22846;42.654;23.314;2023-09-08T02:33:15;94959.69;;;26.42;42.14
31337;BME280;22846;42.654;23.314;2023-09-08T02:35:41;94960.91;;;26.41;42.49
31337;BME280;22846;42.654;23.314;2023-09-08T02:38:06;94963.66;;;26.41;42.09
31337;BME280;22846;42.654;23.314;2023-09-08T02:40:32;94961.34;;;26.39;42.96
31337;BME280;22846;42.654;23.314;2023-09-08T02:43:00;94959.78;;;26.38;42.59
31337;BME280;22846;42.654;23.314;2023-09-08T02:45:26;94957.81;;;26.39;42.88
31337;BME280;22846;42.654;23.314;2023-09-08T02:47:51;94950.03;;;26.37;42.93
31337;BME280;22846;42.654;23.314;2023-09-08T02:50:16;94960.22;;;26.37;42.85
31337;BME280;22846;42.654;23.314;2023-09-08T02:52:42;94962.53;;;26.38;42.27
31337;BME280;22846;42.654;23.314;2023-09-08T02:55:07;94963.28;;;26.39;43.21
31337;BME280;22846;42.654;23.314;2023-09-08T02:57:33;94962.53;;;26.38;43.14
31337;BME280;22846;42.654;23.314;2023-09-08T02:59:59;94962.53;;;26.38;42.93
31337;BME280;22846;42.654;23.314;2023-09-08T03:02:25;94956.25;;;26.38;42.47
31337;BME280;22846;42.654;23.314;2023-09-08T03:04:52;94958.25;;;26.37;43.37
31337;BME280;22846;42.654;23.314;2023-09-08T03:07:17;94956.72;;;26.36;44.05
31337;BME280;22846;42.654;23.314;2023-09-08T03:09:43;94962.94;;;26.37;43.66
31337;BME280;22846;42.654;23.314;2023-09-08T03:12:08;94962.66;;;26.35;43.77
31337;BME280;22846;42.654;23.314;2023-09-08T03:14:34;94955.63;;;26.34;44.05
31337;BME280;22846;42.654;23.314;2023-09-08T03:16:59;94956.84;;;26.33;44.36
31337;BME280;22846;42.654;23.314;2023-09-08T03:19:25;94948.84;;;26.26;44.36
31337;BME280;22846;42.654;23.314;2023-09-08T03:21:51;94954.97;;;26.30;44.04
31337;BME280;22846;42.654;23.314;2023-09-08T03:24:16;94963.63;;;26.28;44.37
31337;BME280;22846;42.654;23.314;2023-09-08T03:26:41;94962.09;;;26.27;44.00
31337;BME280;22846;42.654;23.314;2023-09-08T03:29:07;94961.78;;;26.25;44.38
31337;BME280;22846;42.654;23.314;2023-09-08T03:31:32;94968.16;;;26.22;44.26
31337;BME280;22846;42.654;23.314;2023-09-08T03:33:57;94974.06;;;26.21;44.73
31337;BME280;22846;42.654;23.314;2023-09-08T03:36:23;94965.50;;;26.19;44.76
31337;BME280;22846;42.654;23.314;2023-09-08T03:38:50;94970.69;;;26.17;44.93
31337;BME280;22846;42.654;23.314;2023-09-08T03:41:15;94978.13;;;26.16;44.85
31337;BME280;22846;42.654;23.314;2023-09-08T03:43:40;94979.78;;;26.14;45.02
31337;BME280;22846;42.654;23.314;2023-09-08T03:46:06;94980.22;;;26.12;44.77
31337;BME280;22846;42.654;23.314;2023-09-08T03:48:31;94972.88;;;26.09;45.19
31337;BME280;22846;42.654;23.314;2023-09-08T03:50:56;94979.22;;;26.06;45.42
31337;BME280;22846;42.654;23.314;2023-09-08T03:53:22;94974.28;;;26.01;45.02
31337;BME280;22846;42.654;23.314;2023-09-08T03:55:47;94977.91;;;25.98;45.22
31337;BME280;22846;42.654;23.314;2023-09-08T03:58:13;94976.06;;;25.95;44.96
31337;BME280;22846;42.654;23.314;2023-09-08T04:00:38;94968.72;;;25.92;44.88
31337;BME280;22846;42.654;23.314;2023-09-08T04:03:04;94972.31;;;25.89;44.93
31337;BME280;22846;42.654;23.314;2023-09-08T04:05:29;94975.16;;;25.86;44.89
31337;BME280;22846;42.654;23.314;2023-09-08T04:07:55;94974.06;;;25.83;44.98
31337;BME280;22846;42.654;23.314;2023-09-08T04:10:20;94971.00;;;25.81;44.66
31337;BME280;22846;42.654;23.314;2023-09-08T04:12:45;94977.38;;;25.78;45.10
31337;BME280;22846;42.654;23.314;2023-09-08T04:15:11;94971.56;;;25.76;44.78
31337;BME280;22846;42.654;23.314;2023-09-08T04:17:37;94974.31;;;25.76;44.91
31337;BME280;22846;42.654;23.314;2023-09-08T04:20:04;94966.47;;;25.75;45.15
31337;BME280;22846;42.654;23.314;2023-09-08T04:22:33;94963.84;;;25.71;45.41
31337;BME280;22846;42.654;23.314;2023-09-08T04:24:59;94973.94;;;25.74;45.06
31337;BME280;22846;42.654;23.314;2023-09-08T04:27:24;94982.16;;;25.74;45.55
31337;BME280;22846;42.654;23.314;2023-09-08T04:29:50;94973.19;;;25.74;45.62
31337;BME280;22846;42.654;23.314;2023-09-08T04:32:15;94983.34;;;25.73;45.62
31337;BME280;22846;42.654;23.314;2023-09-08T04:34:41;94986.88;;;25.74;45.47
31337;BME280;22846;42.654;23.314;2023-09-08T04:37:07;94983.34;;;25.73;45.74
31337;BME280;22846;42.654;23.314;2023-09-08T04:39:34;94981.41;;;25.74;45.53
31337;BME280;22846;42.654;23.314;2023-09-08T04:41:59;94980.16;;;25.75;45.61
31337;BME280;22846;42.654;23.314;2023-09-08T04:44:25;94979.00;;;25.76;46.09
31337;BME280;22846;42.654;23.314;2023-09-08T04:46:51;94985.25;;;25.76;45.75
31337;BME280;22846;42.654;23.314;2023-09-08T04:49:17;94981.63;;;25.79;46.18
31337;BME280;22846;42.654;23.314;2023-09-08T04:51:43;94980.00;;;25.82;45.87
31337;BME280;22846;42.654;23.314;2023-09-08T04:54:08;94981.09;;;25.84;46.44
31337;BME280;22846;42.654;23.314;2023-09-08T04:56:33;94982.63;;;25.85;45.88
31337;BME280;22846;42.654;23.314;2023-09-08T04:58:59;94980.97;;;25.88;44.23
31337;BME280;22846;42.654;23.314;2023-09-08T05:01:26;94984.28;;;25.95;44.33
31337;BME280;22846;42.654;23.314;2023-09-08T05:03:52;94984.81;;;26.03;44.26
31337;BME280;22846;42.654;23.314;2023-09-08T05:06:17;94989.97;;;26.13;44.19
31337;BME280;22846;42.654;23.314;2023-09-08T05:08:42;94979.88;;;26.23;44.53
31337;BME280;22846;42.654;23.314;2023-09-08T05:11:09;94983.16;;;26.30;45.33
31337;BME280;22846;42.654;23.314;2023-09-08T05:13:35;94980.84;;;26.41;46.77
31337;BME280;22846;42.654;23.314;2023-09-08T05:16:00;94982.94;;;26.49;46.79
31337;BME280;22846;42.654;23.314;2023-09-08T05:18:36;94979.59;;;26.54;46.92
31337;BME280;22846;42.654;23.314;2023-09-08T05:21:01;94983.63;;;26.62;46.16
31337;BME280;22846;42.654;23.314;2023-09-08T05:23:27;94989.78;;;26.66;45.34
31337;BME280;22846;42.654;23.314;2023-09-08T05:25:52;94982.66;;;26.69;44.69
31337;BME280;22846;42.654;23.314;2023-09-08T05:28:17;94984.94;;;26.70;44.07
31337;BME280;22846;42.654;23.314;2023-09-08T05:30:43;94982.19;;;26.70;44.34
31337;BME280;22846;42.654;23.314;2023-09-08T05:33:08;94983.53;;;26.66;43.40
31337;BME280;22846;42.654;23.314;2023-09-08T05:35:34;94988.59;;;26.67;43.15
31337;BME280;22846;42.654;23.314;2023-09-08T05:37:59;94984.63;;;26.68;43.34
31337;BME280;22846;42.654;23.314;2023-09-08T05:40:24;94985.84;;;26.67;43.52
31337;BME280;22846;42.654;23.314;2023-09-08T05:42:51;94988.25;;;26.65;43.73
31337;BME280;22846;42.654;23.314;2023-09-08T05:45:17;94992.66;;;26.63;43.72
31337;BME280;22846;42.654;23.314;2023-09-08T05:47:42;95000.88;;;26.63;42.76
31337;BME280;22846;42.654;23.314;2023-09-08T05:50:08;95003.75;;;26.59;41.76
31337;BME280;22846;42.654;23.314;2023-09-08T05:52:33;94994.84;;;26.55;40.91
31337;BME280;22846;42.654;23.314;2023-09-08T05:54:59;95002.00;;;26.53;40.51
31337;BME280;22846;42.654;23.314;2023-09-08T05:57:24;94993.88;;;26.49;40.58
31337;BME280;22846;42.654;23.314;2023-09-08T05:59:49;94996.63;;;26.49;40.36
31337;BME280;22846;42.654;23.314;2023-09-08T06:02:15;95003.78;;;26.47;40.48
31337;BME280;22846;42.654;23.314;2023-09-08T06:04:40;95007.25;;;26.48;40.18
31337;BME280;22846;42.654;23.314;2023-09-08T06:07:05;95002.97;;;26.47;40.48
31337;BME280;22846;42.654;23.314;2023-09-08T06:09:32;95010.44;;;26.46;40.44
31337;BME280;22846;42.654;23.314;2023-09-08T06:11:57;95003.78;;;26.47;40.15
31337;BME280;22846;42.654;23.314;2023-09-08T06:14:22;95013.06;;;26.49;40.97
31337;BME280;22846;42.654;23.314;2023-09-08T06:16:48;95000.56;;;26.48;40.04
31337;BME280;22846;42.654;23.314;2023-09-08T06:19:13;95010.78;;;26.48;40.79
31337;BME280;22846;42.654;23.314;2023-09-08T06:21:39;95002.56;;;26.48;40.14
31337;BME280;22846;42.654;23.314;2023-09-08T06:24:04;94999.81;;;26.48;39.64
31337;BME280;22846;42.654;23.314;2023-09-08T06:26:30;95008.34;;;26.50;40.65
31337;BME280;22846;42.654;23.314;2023-09-08T06:28:55;95009.88;;;26.51;39.21
31337;BME280;22846;42.654;23.314;2023-09-08T06:31:21;95014.91;;;26.52;39.08
31337;BME280;22846;42.654;23.314;2023-09-08T06:33:46;95019.19;;;26.53;39.19
31337;BME280;22846;42.654;23.314;2023-09-08T06:36:12;95018.31;;;26.56;39.38
31337;BME280;22846;42.654;23.314;2023-09-08T06:38:37;95022.94;;;26.59;39.16
31337;BME280;22846;42.654;23.314;2023-09-08T06:41:11;95027.22;;;26.60;38.86
31337;BME280;22846;42.654;23.314;2023-09-08T06:43:37;95018.41;;;26.65;38.35
31337;BME280;22846;42.654;23.314;2023-09-08T06:46:03;95022.25;;;26.68;38.35
31337;BME280;22846;42.654;23.314;2023-09-08T06:48:30;95015.53;;;26.69;38.31
31337;BME280;22846;42.654;23.314;2023-09-08T06:50:55;95016.63;;;26.71;38.07
31337;BME280;22846;42.654;23.314;2023-09-08T06:53:24;95020.16;;;26.72;37.50
31337;BME280;22846;42.654;23.314;2023-09-08T06:55:50;95025.53;;;26.75;37.20
31337;BME280;22846;42.654;23.314;2023-09-08T06:58:15;95022.66;;;26.79;38.00
31337;BME280;22846;42.654;23.314;2023-09-08T07:00:41;95023.75;;;26.81;38.69
31337;BME280;22846;42.654;23.314;2023-09-08T07:03:06;95029.09;;;26.85;38.17
31337;BME280;22846;42.654;23.314;2023-09-08T07:05:33;95027.03;;;26.89;38.70
31337;BME280;22846;42.654;23.314;2023-09-08T07:08:01;95023.06;;;26.90;37.00
31337;BME280;22846;42.654;23.314;2023-09-08T07:10:31;95022.94;;;26.93;37.85
31337;BME280;22846;42.654;23.314;2023-09-08T07:12:56;95021.63;;;26.98;38.56
31337;BME280;22846;42.654;23.314;2023-09-08T07:15:22;95025.00;;;27.02;39.21
31337;BME280;22846;42.654;23.314;2023-09-08T07:17:47;95023.38;;;27.04;38.78
31337;BME280;22846;42.654;23.314;2023-09-08T07:20:12;95023.25;;;27.08;39.25
31337;BME280;22846;42.654;23.314;2023-09-08T07:22:39;95016.44;;;27.12;39.56
31337;BME280;22846;42.654;23.314;2023-09-08T07:25:05;95012.03;;;27.15;37.98
31337;BME280;22846;42.654;23.314;2023-09-08T07:27:30;95007.63;;;27.17;38.48
31337;BME280;22846;42.654;23.314;2023-09-08T07:29:56;95013.75;;;27.21;39.41
31337;BME280;22846;42.654;23.314;2023-09-08T07:32:21;95007.38;;;27.24;38.96
31337;BME280;22846;42.654;23.314;2023-09-08T07:34:48;95011.19;;;27.27;38.67
31337;BME280;22846;42.654;23.314;2023-09-08T07:37:22;95015.03;;;27.29;38.14
31337;BME280;22846;42.654;23.314;2023-09-08T07:39:49;95006.81;;;27.29;37.50
31337;BME280;22846;42.654;23.314;2023-09-08T07:42:14;95006.34;;;27.31;36.71
31337;BME280;22846;42.654;23.314;2023-09-08T07:44:40;95001.75;;;27.28;36.66
31337;BME280;22846;42.654;23.314;2023-09-08T07:47:05;95006.22;;;27.34;37.14
31337;BME280;22846;42.654;23.314;2023-09-08T07:49:33;95008.50;;;27.35;38.36
31337;BME280;22846;42.654;23.314;2023-09-08T07:51:58;95000.59;;;27.37;38.51
31337;BME280;22846;42.654;23.314;2023-09-08T07:54:24;95007.94;;;27.40;38.35
31337;BME280;22846;42.654;23.314;2023-09-08T07:56:49;95002.78;;;27.42;37.86
31337;BME280;22846;42.654;23.314;2023-09-08T07:59:14;95009.78;;;27.43;38.14
31337;BME280;22846;42.654;23.314;2023-09-08T08:01:40;95006.16;;;27.46;38.04
31337;BME280;22846;42.654;23.314;2023-09-08T08:04:05;95008.75;;;27.50;38.32
31337;BME280;22846;42.654;23.314;2023-09-08T08:06:30;95010.31;;;27.51;38.23
31337;BME280;22846;42.654;23.314;2023-09-08T08:08:56;95010.63;;;27.53;38.53
31337;BME280;22846;42.654;23.314;2023-09-08T08:11:21;95006.22;;;27.55;38.33
31337;BME280;22846;42.654;23.314;2023-09-08T08:13:47;95009.28;;;27.57;38.70
31337;BME280;22846;42.654;23.314;2023-09-08T08:16:12;94998.63;;;27.59;40.08
31337;BME280;22846;42.654;23.314;2023-09-08T08:18:38;94992.66;;;27.61;39.62
31337;BME280;22846;42.654;23.314;2023-09-08T08:21:03;94988.84;;;27.58;39.10
31337;BME280;22846;42.654;23.314;2023-09-08T08:23:32;95004.53;;;27.58;38.25
31337;BME280;22846;42.654;23.314;2023-09-08T08:25:59;94998.81;;;27.43;36.10
31337;BME280;22846;42.654;23.314;2023-09-08T08:28:24;95009.78;;;27.43;36.55
31337;BME280;22846;42.654;23.314;2023-09-08T08:30:50;95005.06;;;27.44;36.34
31337;BME280;22846;42.654;23.314;2023-09-08T08:33:16;95009.34;;;27.45;36.37
31337;BME280;22846;42.654;23.314;2023-09-08T08:35:48;94999.25;;;27.42;35.58
31337;BME280;22846;42.654;23.314;2023-09-08T08:38:13;95004.63;;;27.45;35.50
31337;BME280;22846;42.654;23.314;2023-09-08T08:40:39;94997.28;;;27.42;35.24
31337;BME280;22846;42.654;23.314;2023-09-08T08:43:04;94987.53;;;27.41;35.65
31337;BME280;22846;42.654;23.314;2023-09-08T08:45:30;94976.84;;;27.43;35.34
31337;BME280;22846;42.654;23.314;2023-09-08T08:47:56;94983.13;;;27.44;35.17
31337;BME280;22846;42.654;23.314;2023-09-08T08:50:24;94986.94;;;27.46;35.73
31337;BME280;22846;42.654;23.314;2023-09-08T08:52:49;94990.00;;;27.48;34.83
31337;BME280;22846;42.654;23.314;2023-09-08T08:55:15;95002.53;;;27.49;34.73
31337;BME280;22846;42.654;23.314;2023-09-08T08:57:41;94977.34;;;27.51;35.99
31337;BME280;22846;42.654;23.314;2023-09-08T09:00:08;94985.91;;;27.53;37.10
31337;BME280;22846;42.654;23.314;2023-09-08T09:02:36;94973.41;;;27.52;37.00
31337;BME280;22846;42.654;23.314;2023-09-08T09:05:04;94983.78;;;27.57;36.89
31337;BME280;22846;42.654;23.314;2023-09-08T09:07:31;94999.84;;;27.58;35.42
31337;BME280;22846;42.654;23.314;2023-09-08T09:09:57;94983.34;;;27.58;35.23
31337;BME280;22846;42.654;23.314;2023-09-08T09:12:22;94984.88;;;27.59;34.63
31337;BME280;22846;42.654;23.314;2023-09-08T09:14:52;94983.66;;;27.60;34.95
31337;BME280;22846;42.654;23.314;2023-09-08T09:17:18;94991.50;;;27.62;34.92
31337;BME280;22846;42.654;23.314;2023-09-08T09:19:43;94987.94;;;27.61;34.13
31337;BME280;22846;42.654;23.314;2023-09-08T09:22:09;94986.41;;;27.60;33.94
31337;BME280;22846;42.654;23.314;2023-09-08T09:24:43;94977.88;;;27.58;34.39
31337;BME280;22846;42.654;23.314;2023-09-08T09:27:09;94964.13;;;27.58;34.81
31337;BME280;22846;42.654;23.314;2023-09-08T09:29:48;94979.81;;;27.58;34.58
31337;BME280;22846;42.654;23.314;2023-09-08T09:32:14;94975.56;;;27.57;34.19
31337;BME280;22846;42.654;23.314;2023-09-08T09:34:51;94974.47;;;27.54;34.08
31337;BME280;22846;42.654;23.314;2023-09-08T09:37:19;94975.69;;;27.53;33.84
31337;BME280;22846;42.654;23.314;2023-09-08T09:39:54;94969.91;;;27.51;33.84
31337;BME280;22846;42.654;23.314;2023-09-08T09:42:22;94991.88;;;27.51;34.47
31337;BME280;22846;42.654;23.314;2023-09-08T09:44:49;94965.63;;;27.50;34.63
31337;BME280;22846;42.654;23.314;2023-09-08T09:47:15;94968.66;;;27.52;35.60
31337;BME280;22846;42.654;23.314;2023-09-08T09:49:45;94955.72;;;27.53;35.39
31337;BME280;22846;42.654;23.314;2023-09-08T09:52:21;94968.56;;;27.56;35.68
31337;BME280;22846;42.654;23.314;2023-09-08T09:54:47;94957.44;;;27.59;35.76
31337;BME280;22846;42.654;23.314;2023-09-08T09:57:17;94958.94;;;27.60;35.88
31337;BME280;22846;42.654;23.314;2023-09-08T09:59:45;94958.06;;;27.63;36.05
31337;BME280;22846;42.654;23.314;2023-09-08T10:02:14;94959.63;;;27.64;36.22
31337;BME280;22846;42.654;23.314;2023-09-08T10:04:40;94952.44;;;27.67;36.16
31337;BME280;22846;42.654;23.314;2023-09-08T10:07:06;94960.25;;;27.68;36.25
31337;BME280;22846;42.654;23.314;2023-09-08T10:09:32;94950.34;;;27.71;36.51
31337;BME280;22846;42.654;23.314;2023-09-08T10:12:03;94940.25;;;27.68;36.58
31337;BME280;22846;42.654;23.314;2023-09-08T10:14:28;94941.66;;;27.72;36.59
31337;BME280;22846;42.654;23.314;2023-09-08T10:16:56;94947.91;;;27.73;36.71
31337;BME280;22846;42.654;23.314;2023-09-08T10:19:24;94937.22;;;27.75;36.97
31337;BME280;22846;42.654;23.314;2023-09-08T10:21:51;94939.97;;;27.75;37.03
31337;BME280;22846;42.654;23.314;2023-09-08T10:24:24;94938.75;;;27.76;37.05
31337;BME280;22846;42.654;23.314;2023-09-08T10:26:57;94935.25;;;27.75;37.34
31337;BME280;22846;42.654;23.314;2023-09-08T10:29:24;94931.31;;;27.76;37.29
31337;BME280;22846;42.654;23.314;2023-09-08T10:31:50;94934.81;;;27.77;37.34
31337;BME280;22846;42.654;23.314;2023-09-08T10:34:16;94922.59;;;27.78;37.36
31337;BME280;22846;42.654;23.314;2023-09-08T10:36:42;94925.34;;;27.78;37.49
31337;BME280;22846;42.654;23.314;2023-09-08T10:39:33;94941.81;;;27.78;37.75
31337;BME280;22846;42.654;23.314;2023-09-08T10:45:14;94926.09;;;27.78;37.68
31337;BME280;22846;42.654;23.314;2023-09-08T10:50:18;94920.00;;;27.74;37.64
31337;BME280;22846;42.654;23.314;2023-09-08T10:52:44;94934.66;;;27.80;37.61
31337;BME280;22846;42.654;23.314;2023-09-08T10:55:11;94929.94;;;27.81;37.78
31337;BME280;22846;42.654;23.314;2023-09-08T10:57:38;94925.97;;;27.82;37.92
31337;BME280;22846;42.654;23.314;2023-09-08T11:00:09;94926.72;;;27.82;38.02
31337;BME280;22846;42.654;23.314;2023-09-08T11:02:49;94921.25;;;27.82;38.08
31337;BME280;22846;42.654;23.314;2023-09-08T11:05:16;94919.25;;;27.83;38.00
31337;BME280;22846;42.654;23.314;2023-09-08T11:07:43;94918.50;;;27.82;38.04
31337;BME280;22846;42.654;23.314;2023-09-08T11:10:10;94926.28;;;27.84;38.09
31337;BME280;22846;42.654;23.314;2023-09-08T11:12:36;94916.06;;;27.84;37.93
31337;BME280;22846;42.654;23.314;2023-09-08T11:15:03;94917.28;;;27.83;37.87
31337;BME280;22846;42.654;23.314;2023-09-08T11:17:33;94922.31;;;27.85;37.99
31337;BME280;22846;42.654;23.314;2023-09-08T11:20:00;94920.78;;;27.84;38.18
31337;BME280;22846;42.654;23.314;2023-09-08T11:22:26;94920.78;;;27.84;38.28
31337;BME280;22846;42.654;23.314;2023-09-08T11:25:01;94907.81;;;27.84;38.24
31337;BME280;22846;42.654;23.314;2023-09-08T11:27:30;94912.53;;;27.84;38.18
31337;BME280;22846;42.654;23.314;2023-09-08T11:29:56;94913.31;;;27.84;38.28
31337;BME280;22846;42.654;23.314;2023-09-08T11:32:25;94901.56;;;27.84;38.34
31337;BME280;22846;42.654;23.314;2023-09-08T11:34:50;94909.38;;;27.85;38.29
31337;BME280;22846;42.654;23.314;2023-09-08T11:37:17;94907.03;;;27.84;38.35
31337;BME280;22846;42.654;23.314;2023-09-08T11:39:44;94899.59;;;27.84;38.41
31337;BME280;22846;42.654;23.314;2023-09-08T11:42:12;94902.34;;;27.84;38.20
31337;BME280;22846;42.654;23.314;2023-09-08T11:44:38;94902.34;;;27.84;38.36
31337;BME280;22846;42.654;23.314;2023-09-08T11:47:06;94897.59;;;27.85;38.40
31337;BME280;22846;42.654;23.314;2023-09-08T11:49:35;94903.88;;;27.85;38.29
31337;BME280;22846;42.654;23.314;2023-09-08T11:52:01;94888.88;;;27.86;38.18
31337;BME280;22846;42.654;23.314;2023-09-08T11:54:27;94886.13;;;27.86;38.66
31337;BME280;22846;42.654;23.314;2023-09-08T11:56:53;94892.41;;;27.87;38.44
31337;BME280;22846;42.654;23.314;2023-09-08T11:59:19;94893.63;;;27.86;38.54
31337;BME280;22846;42.654;23.314;2023-09-08T12:01:44;94890.00;;;27.89;38.62
31337;BME280;22846;42.654;23.314;2023-09-08T12:04:17;94891.19;;;27.88;38.41
31337;BME280;22846;42.654;23.314;2023-09-08T12:06:44;94884.50;;;27.89;38.80
31337;BME280;22846;42.654;23.314;2023-09-08T12:09:09;94882.50;;;27.89;38.61
31337;BME280;22846;42.654;23.314;2023-09-08T12:11:35;94887.53;;;27.91;38.29
31337;BME280;22846;42.654;23.314;2023-09-08T12:14:07;94877.78;;;27.90;38.31
31337;BME280;22846;42.654;23.314;2023-09-08T12:16:33;94887.09;;;27.92;38.76
31337;BME280;22846;42.654;23.314;2023-09-08T12:18:58;94885.88;;;27.93;38.26
31337;BME280;22846;42.654;23.314;2023-09-08T12:21:24;94885.88;;;27.93;38.47
31337;BME280;22846;42.654;23.314;2023-09-08T12:23:53;94876.09;;;27.92;38.58
31337;BME280;22846;42.654;23.314;2023-09-08T12:26:19;94864.66;;;27.94;38.27
31337;BME280;22846;42.654;23.314;2023-09-08T12:28:45;94875.19;;;27.95;38.26
31337;BME280;22846;42.654;23.314;2023-09-08T12:31:13;94864.97;;;27.96;38.10
31337;BME280;22846;42.654;23.314;2023-09-08T12:33:38;94860.22;;;27.96;38.23
31337;BME280;22846;42.654;23.314;2023-09-08T12:36:16;94851.97;;;27.96;38.25
31337;BME280;22846;42.654;23.314;2023-09-08T12:38:50;94845.75;;;27.96;38.17
31337;BME280;22846;42.654;23.314;2023-09-08T12:41:17;94840.09;;;27.99;38.23
31337;BME280;22846;42.654;23.314;2023-09-08T12:43:42;94856.59;;;27.99;38.34
31337;BME280;22846;42.654;23.314;2023-09-08T12:46:08;94854.59;;;28.00;38.26
31337;BME280;22846;42.654;23.314;2023-09-08T12:48:33;94847.13;;;28.00;38.22
31337;BME280;22846;42.654;23.314;2023-09-08T12:50:58;94857.66;;;28.02;38.30
31337;BME280;22846;42.654;23.314;2023-09-08T12:53:24;94848.19;;;28.03;38.40
31337;BME280;22846;42.654;23.314;2023-09-08T12:55:49;94848.97;;;28.03;38.24
31337;BME280;22846;42.654;23.314;2023-09-08T12:58:16;94848.97;;;28.03;38.23